createdAt,value
2023-01-27T00:04:37.680Z,4.22
2023-01-27T00:09:41.913Z,4.34
2023-01-27T00:14:44.313Z,4.36
2023-01-27T00:19:46.739Z,4.26
2023-01-27T00:24:49.163Z,4.32
2023-01-27T00:29:52.950Z,4.20
2023-01-27T00:34:55.643Z,4.08
2023-01-27T00:39:59.330Z,4.04
2023-01-27T00:45:20.327Z,4.15
2023-01-27T00:50:22.894Z,4.25
2023-01-27T00:55:25.893Z,4.31
2023-01-27T01:00:28.439Z,4.11
2023-01-27T01:05:30.896Z,4.31
2023-01-27T01:10:33.544Z,4.26
2023-01-27T01:15:37.308Z,4.07
2023-01-27T01:20:46.216Z,4.23
2023-01-27T01:25:56.401Z,4.04
2023-01-27T01:31:06.253Z,3.96
2023-01-27T01:36:11.357Z,4.12
2023-01-27T01:41:19.728Z,4.11
2023-01-27T01:46:22.721Z,4.30
2023-01-27T01:51:41.895Z,4.52
2023-01-27T01:57:05.284Z,4.25
2023-01-27T02:02:11.189Z,4.00
2023-01-27T02:07:27.505Z,4.14
2023-01-27T02:12:30.317Z,3.86
2023-01-27T02:17:32.766Z,3.76
2023-01-27T02:23:06.583Z,3.89
2023-01-27T02:28:09.528Z,3.49
2023-01-27T02:33:15.958Z,3.67
2023-01-27T02:38:20.091Z,3.60
2023-01-27T02:43:22.627Z,3.87
2023-01-27T02:48:25.414Z,3.68
2023-01-27T02:53:27.857Z,3.80
2023-01-27T02:58:31.339Z,3.94
2023-01-27T03:03:47.071Z,4.31
2023-01-27T03:08:54.035Z,4.49
2023-01-27T03:13:57.065Z,4.19
2023-01-27T03:18:59.560Z,3.90
2023-01-27T03:24:02.409Z,3.94
2023-01-27T03:29:24.073Z,3.92
2023-01-27T03:34:26.626Z,3.61
2023-01-27T03:39:52.316Z,3.78
2023-01-27T03:45:14.020Z,3.86
2023-01-27T03:50:19.514Z,3.86
2023-01-27T03:55:23.328Z,3.79
2023-01-27T04:00:26.078Z,3.96
2023-01-27T04:05:48.560Z,4.00
2023-01-27T04:11:11.001Z,3.84
2023-01-27T04:16:13.467Z,4.21
2023-01-27T04:21:16.009Z,4.15
2023-01-27T04:26:18.936Z,3.93
2023-01-27T04:31:21.323Z,4.39
2023-01-27T04:36:24.009Z,4.49
2023-01-27T04:41:26.717Z,4.33
2023-01-27T04:46:29.555Z,4.30
2023-01-27T04:51:32.662Z,4.59
2023-01-27T04:56:44.564Z,4.72
2023-01-27T05:01:47.018Z,4.73
2023-01-27T05:06:49.560Z,4.56
2023-01-27T05:11:51.951Z,4.63
2023-01-27T05:16:54.875Z,4.79
2023-01-27T05:21:57.830Z,4.64
2023-01-27T05:27:00.300Z,4.31
2023-01-27T05:32:02.737Z,4.38
2023-01-27T05:37:05.314Z,4.43
2023-01-27T05:42:07.868Z,4.53
2023-01-27T05:47:10.274Z,4.62
2023-01-27T05:52:12.714Z,4.63
2023-01-27T05:57:15.146Z,4.46
2023-01-27T06:02:17.556Z,4.64
2023-01-27T06:07:20.205Z,4.81
2023-01-27T06:12:22.809Z,4.81
2023-01-27T06:17:25.621Z,4.65
2023-01-27T06:22:28.073Z,4.68
2023-01-27T06:27:30.492Z,4.92
2023-01-27T06:32:35.578Z,4.82
2023-01-27T06:37:38.058Z,4.59
2023-01-27T06:42:43.584Z,4.66
2023-01-27T06:47:46.085Z,4.75
2023-01-27T06:52:48.678Z,5.07
2023-01-27T06:57:51.983Z,5.13
2023-01-27T07:02:56.580Z,4.98
2023-01-27T07:07:59.526Z,4.88
2023-01-27T07:13:10.462Z,4.97
2023-01-27T07:18:14.277Z,4.94
2023-01-27T07:23:16.755Z,4.86
2023-01-27T07:28:19.330Z,4.85
2023-01-27T07:33:21.841Z,4.82
2023-01-27T07:38:24.624Z,4.98
2023-01-27T07:43:27.071Z,5.05
2023-01-27T07:48:29.723Z,4.94
2023-01-27T07:53:32.248Z,4.94
2023-01-27T07:58:34.871Z,4.63
2023-01-27T08:03:38.252Z,4.90
2023-01-27T08:08:41.002Z,5.01
2023-01-27T08:13:43.427Z,5.01
2023-01-27T08:18:45.882Z,4.90
2023-01-27T08:23:48.390Z,5.06
2023-01-27T08:28:52.212Z,5.08
2023-01-27T08:33:55.134Z,5.17
2023-01-27T08:38:57.748Z,5.19
2023-01-27T08:44:00.182Z,4.91
2023-01-27T08:49:03.379Z,4.96
2023-01-27T08:54:06.715Z,5.24
2023-01-27T08:59:09.131Z,5.08
2023-01-27T09:04:11.999Z,5.15
2023-01-27T09:09:14.578Z,5.06
2023-01-27T09:14:17.191Z,5.12
2023-01-27T09:19:19.703Z,5.17
2023-01-27T09:24:22.793Z,4.78
2023-01-27T09:29:25.382Z,4.90
2023-01-27T09:34:28.093Z,4.94
2023-01-27T09:39:35.235Z,4.95
2023-01-27T09:45:00.704Z,4.95
2023-01-27T09:50:42.162Z,4.89
2023-01-27T09:56:01.611Z,5.13
2023-01-27T10:01:20.919Z,5.09
2023-01-27T10:06:29.464Z,5.21
2023-01-27T10:11:37.662Z,5.36
2023-01-27T10:16:57.837Z,5.28
2023-01-27T10:22:24.537Z,5.29
2023-01-27T10:27:35.576Z,5.38
2023-01-27T10:32:55.509Z,5.38
2023-01-27T10:38:12.970Z,5.41
2023-01-27T10:43:38.793Z,5.58
2023-01-27T10:48:52.311Z,5.81
2023-01-27T10:54:12.391Z,5.82
2023-01-27T10:59:23.663Z,5.76
2023-01-27T11:05:00.592Z,5.73
2023-01-27T11:10:08.336Z,5.65
2023-01-27T11:15:25.183Z,5.66
2023-01-27T11:20:30.886Z,5.73
2023-01-27T11:25:46.963Z,5.48
2023-01-27T11:31:04.878Z,5.12
2023-01-27T11:36:09.379Z,5.62
2023-01-27T11:41:12.039Z,5.57
2023-01-27T11:46:21.673Z,5.50
2023-01-27T11:51:28.033Z,5.57
2023-01-27T11:56:33.269Z,5.69
2023-01-27T12:02:01.959Z,5.68
2023-01-27T12:07:20.290Z,5.64
2023-01-27T12:12:27.305Z,5.71
2023-01-27T12:17:47.510Z,5.83
2023-01-27T12:22:54.632Z,5.36
2023-01-27T12:28:04.162Z,5.71
2023-01-27T12:33:24.589Z,5.87
2023-01-27T12:38:32.313Z,6.08
2023-01-27T12:43:51.230Z,5.81
2023-01-27T12:49:09.570Z,5.78
2023-01-27T12:54:24.876Z,5.85
2023-01-27T12:59:28.393Z,6.00
2023-01-27T13:04:31.154Z,5.95
2023-01-27T13:09:55.784Z,5.85
2023-01-27T13:15:15.301Z,5.82
2023-01-27T13:20:42.870Z,5.80
2023-01-27T13:26:00.896Z,5.82
2023-01-27T13:31:12.428Z,5.87
2023-01-27T13:36:43.971Z,5.77
2023-01-27T13:42:04.719Z,5.77
2023-01-27T13:47:25.513Z,5.77
2023-01-27T13:52:28.572Z,5.80
2023-01-27T13:57:42.531Z,5.83
2023-01-27T14:03:14.548Z,5.96
2023-01-27T14:08:36.067Z,5.87
2023-01-27T14:13:57.508Z,5.87
2023-01-27T14:19:26.723Z,5.73
2023-01-27T14:24:35.185Z,5.56
2023-01-27T14:29:57.421Z,5.72
2023-01-27T14:35:12.237Z,5.81
2023-01-27T14:40:52.838Z,5.74
2023-01-27T14:46:15.526Z,5.72
2023-01-27T14:51:47.862Z,5.73
2023-01-27T14:57:27.636Z,5.69
2023-01-27T15:02:44.040Z,5.66
2023-01-27T15:08:08.135Z,5.64
2023-01-27T15:13:33.144Z,5.77
2023-01-27T15:18:56.832Z,5.90
2023-01-27T15:24:28.206Z,5.72
2023-01-27T15:29:31.818Z,5.65
2023-01-27T15:34:34.239Z,5.73
2023-01-27T15:40:05.613Z,5.71
2023-01-27T15:45:30.487Z,5.80
2023-01-27T15:50:36.708Z,5.89
2023-01-27T15:55:47.705Z,5.80
2023-01-27T16:00:53.341Z,5.33
2023-01-27T16:06:02.814Z,5.38
2023-01-27T16:11:34.248Z,5.60
2023-01-27T16:16:36.922Z,5.69
2023-01-27T16:21:49.642Z,5.73
2023-01-27T16:27:08.574Z,5.58
2023-01-27T16:32:19.719Z,5.69
2023-01-27T16:37:38.342Z,5.85
2023-01-27T16:43:02.209Z,5.85
2023-01-27T16:48:12.923Z,5.85
2023-01-27T16:53:19.925Z,5.89
2023-01-27T16:58:32.457Z,6.01
2023-01-27T17:03:40.314Z,5.73
2023-01-27T17:08:49.854Z,5.55
2023-01-27T17:14:21.333Z,5.66
2023-01-27T17:19:34.751Z,5.73
2023-01-27T17:24:43.595Z,5.67
2023-01-27T17:29:47.992Z,5.70
2023-01-27T17:34:54.792Z,5.79
2023-01-27T17:40:03.354Z,5.66
2023-01-27T17:45:34.098Z,5.79
2023-01-27T17:50:39.326Z,5.70
2023-01-27T17:55:42.055Z,5.80
2023-01-27T18:00:46.507Z,5.97
2023-01-27T18:05:52.490Z,5.74
2023-01-27T18:11:19.994Z,5.85
2023-01-27T18:16:24.712Z,5.90
2023-01-27T18:21:28.189Z,5.97
2023-01-27T18:26:42.136Z,6.09
2023-01-27T18:31:55.836Z,6.03
2023-01-27T18:37:31.714Z,5.88
2023-01-27T18:42:34.189Z,5.97
2023-01-27T18:47:36.748Z,5.82
2023-01-27T18:52:40.269Z,6.01
2023-01-27T18:57:43.223Z,5.96
2023-01-27T19:02:48.003Z,5.73
2023-01-27T19:07:50.739Z,6.04
2023-01-27T19:13:01.091Z,5.94
2023-01-27T19:18:25.057Z,5.65
2023-01-27T19:23:29.101Z,5.68
2023-01-27T19:28:35.373Z,5.76
2023-01-27T19:33:38.627Z,5.88
2023-01-27T19:38:41.265Z,6.03
2023-01-27T19:43:47.187Z,6.12
2023-01-27T19:48:49.839Z,6.08
2023-01-27T19:53:52.345Z,6.05
2023-01-27T19:58:55.170Z,6.03
2023-01-27T20:03:57.922Z,6.02
2023-01-27T20:09:03.507Z,6.06
2023-01-27T20:14:19.010Z,5.83
2023-01-27T20:19:21.572Z,5.90
2023-01-27T20:24:24.052Z,5.96
2023-01-27T20:29:26.867Z,5.96
2023-01-27T20:34:29.290Z,6.01
2023-01-27T20:39:31.812Z,6.06
2023-01-27T20:44:34.274Z,5.91
2023-01-27T20:49:36.702Z,5.94
2023-01-27T20:54:39.108Z,5.93
2023-01-27T20:59:42.119Z,5.86
2023-01-27T21:04:44.693Z,5.90
2023-01-27T21:09:47.191Z,5.87
2023-01-27T21:14:49.619Z,5.80
2023-01-27T21:19:52.147Z,5.83
2023-01-27T21:24:54.653Z,5.79
2023-01-27T21:29:57.740Z,5.78
2023-01-27T21:35:00.358Z,5.95
2023-01-27T21:40:03.531Z,6.00
2023-01-27T21:45:12.724Z,5.91
2023-01-27T21:50:15.609Z,6.10
2023-01-27T21:55:26.877Z,6.06
2023-01-27T22:00:29.887Z,5.96
2023-01-27T22:05:35.465Z,5.86
2023-01-27T22:10:38.285Z,5.88
2023-01-27T22:15:40.912Z,5.80
2023-01-27T22:20:43.367Z,5.93
2023-01-27T22:25:50.298Z,5.95
2023-01-27T22:30:53.022Z,5.86
2023-01-27T22:36:05.602Z,5.88
2023-01-27T22:41:08.041Z,5.91
2023-01-27T22:46:10.486Z,5.91
2023-01-27T22:51:13.098Z,5.77
2023-01-27T22:56:15.753Z,5.83
2023-01-27T23:01:18.204Z,5.84
2023-01-27T23:06:20.701Z,5.84
2023-01-27T23:11:23.245Z,5.92
2023-01-27T23:16:25.806Z,5.67
2023-01-27T23:21:29.623Z,5.94
2023-01-27T23:26:32.016Z,5.82
2023-01-27T23:31:34.558Z,5.91
2023-01-27T23:36:37.058Z,5.96
2023-01-27T23:41:39.587Z,5.91
2023-01-27T23:46:43.422Z,5.91
2023-01-27T23:51:45.991Z,5.83
2023-01-27T23:56:48.425Z,5.75
